sensor_id;sensor_type;location;lat;lon;timestamp;pressure;altitude;pressure_sealevel;temperature;humidity
35519;BME280;21627;48.216;16.482;2023-09-07T00:02:12;100471.22;;;15.45;100.00
35519;BME280;21627;48.216;16.482;2023-09-07T00:04:39;100462.56;;;15.37;100.00
35519;BME280;21627;48.216;16.482;2023-09-07T00:07:07;100467.78;;;15.39;100.00
35519;BME280;21627;48.216;16.482;2023-09-07T00:09:34;100460.84;;;15.34;100.00
35519;BME280;21627;48.216;16.482;2023-09-07T00:12:01;100457.44;;;15.29;100.00
35519;BME280;21627;48.216;16.482;2023-09-07T00:14:28;100454.00;;;15.26;100.00
35519;BME280;21627;48.216;16.482;2023-09-07T00:16:55;100470.47;;;15.26;100.00
35519;BME280;21627;48.216;16.482;2023-09-07T00:19:24;100475.72;;;15.25;100.00
35519;BME280;21627;48.216;16.482;2023-09-07T00:21:51;100472.25;;;15.21;100.00
35519;BME280;21627;48.216;16.482;2023-09-07T00:24:18;100475.78;;;15.15;100.00
35519;BME280;21627;48.216;16.482;2023-09-07T00:26:46;100466.28;;;15.10;100.00
35519;BME280;21627;48.216;16.482;2023-09-07T00:29:13;100471.50;;;15.10;100.00
35519;BME280;21627;48.216;16.482;2023-09-07T00:31:40;100476.72;;;15.07;100.00
35519;BME280;21627;48.216;16.482;2023-09-07T00:34:08;100471.50;;;15.05;100.00
35519;BME280;21627;48.216;16.482;2023-09-07T00:36:36;100465.44;;;15.02;100.00
35519;BME280;21627;48.216;16.482;2023-09-07T00:39:03;100453.34;;;14.98;100.00
35519;BME280;21627;48.216;16.482;2023-09-07T00:41:30;100466.34;;;14.98;100.00
35519;BME280;21627;48.216;16.482;2023-09-07T00:43:57;100458.56;;;14.93;100.00
35519;BME280;21627;48.216;16.482;2023-09-07T00:46:25;100456.84;;;14.89;100.00
35519;BME280;21627;48.216;16.482;2023-09-07T00:48:52;100456.88;;;14.86;100.00
35519;BME280;21627;48.216;16.482;2023-09-07T00:51:19;100455.19;;;14.82;100.00
35519;BME280;21627;48.216;16.482;2023-09-07T00:53:46;100449.13;;;14.75;100.00
35519;BME280;21627;48.216;16.482;2023-09-07T00:56:14;100456.06;;;14.76;100.00
35519;BME280;21627;48.216;16.482;2023-09-07T00:58:41;100452.63;;;14.71;100.00
35519;BME280;21627;48.216;16.482;2023-09-07T01:01:09;100440.50;;;14.64;100.00
35519;BME280;21627;48.216;16.482;2023-09-07T01:03:37;100439.63;;;14.66;100.00
35519;BME280;21627;48.216;16.482;2023-09-07T01:06:18;100441.41;;;14.61;100.00
35519;BME280;21627;48.216;16.482;2023-09-07T01:08:50;100426.69;;;14.57;100.00
35519;BME280;21627;48.216;16.482;2023-09-07T01:11:19;100427.56;;;14.55;100.00
35519;BME280;21627;48.216;16.482;2023-09-07T01:13:47;100439.72;;;14.54;100.00
35519;BME280;21627;48.216;16.482;2023-09-07T01:16:15;100437.09;;;14.53;100.00
35519;BME280;21627;48.216;16.482;2023-09-07T01:18:42;100444.03;;;14.52;100.00
35519;BME280;21627;48.216;16.482;2023-09-07T01:21:12;100450.09;;;14.51;100.00
35519;BME280;21627;48.216;16.482;2023-09-07T01:23:41;100451.88;;;14.49;100.00
35519;BME280;21627;48.216;16.482;2023-09-07T01:26:09;100438.88;;;14.44;100.00
35519;BME280;21627;48.216;16.482;2023-09-07T01:28:37;100457.06;;;14.49;100.00
35519;BME280;21627;48.216;16.482;2023-09-07T01:31:05;100443.22;;;14.42;100.00
35519;BME280;21627;48.216;16.482;2023-09-07T01:33:33;100444.06;;;14.44;100.00
35519;BME280;21627;48.216;16.482;2023-09-07T01:36:00;100451.88;;;14.44;100.00
35519;BME280;21627;48.216;16.482;2023-09-07T01:38:28;100450.13;;;14.43;100.00
35519;BME280;21627;48.216;16.482;2023-09-07T01:40:55;100448.41;;;14.36;100.00
35519;BME280;21627;48.216;16.482;2023-09-07T01:43:22;100457.97;;;14.37;100.00
35519;BME280;21627;48.216;16.482;2023-09-07T01:45:49;100454.50;;;14.34;100.00
35519;BME280;21627;48.216;16.482;2023-09-07T01:48:16;100451.91;;;14.34;100.00
35519;BME280;21627;48.216;16.482;2023-09-07T01:50:44;100444.97;;;14.33;100.00
35519;BME280;21627;48.216;16.482;2023-09-07T01:53:11;100451.91;;;14.34;100.00
35519;BME280;21627;48.216;16.482;2023-09-07T01:55:38;100458.00;;;14.33;100.00
35519;BME280;21627;48.216;16.482;2023-09-07T01:58:05;100446.75;;;14.29;100.00
35519;BME280;21627;48.216;16.482;2023-09-07T02:00:37;100462.38;;;14.24;100.00
35519;BME280;21627;48.216;16.482;2023-09-07T02:03:05;100458.91;;;14.19;100.00
35519;BME280;21627;48.216;16.482;2023-09-07T02:05:33;100462.41;;;14.14;100.00
35519;BME280;21627;48.216;16.482;2023-09-07T02:08:00;100465.88;;;14.11;100.00
35519;BME280;21627;48.216;16.482;2023-09-07T02:10:28;100465.03;;;14.09;100.00
35519;BME280;21627;48.216;16.482;2023-09-07T02:12:55;100464.16;;;14.07;100.00
35519;BME280;21627;48.216;16.482;2023-09-07T02:15:23;100467.63;;;14.04;100.00
35519;BME280;21627;48.216;16.482;2023-09-07T02:17:50;100465.88;;;14.03;100.00
35519;BME280;21627;48.216;16.482;2023-09-07T02:20:19;100468.50;;;13.99;100.00
35519;BME280;21627;48.216;16.482;2023-09-07T02:22:47;100471.09;;;13.96;100.00
35519;BME280;21627;48.216;16.482;2023-09-07T02:25:14;100471.13;;;13.99;100.00
35519;BME280;21627;48.216;16.482;2023-09-07T02:27:41;100476.28;;;13.96;100.00
35519;BME280;21627;48.216;16.482;2023-09-07T02:30:09;100467.66;;;13.91;100.00
35519;BME280;21627;48.216;16.482;2023-09-07T02:32:36;100478.06;;;13.94;100.00
35519;BME280;21627;48.216;16.482;2023-09-07T02:35:03;100473.72;;;13.91;100.00
35519;BME280;21627;48.216;16.482;2023-09-07T02:37:31;100469.38;;;13.90;100.00
35519;BME280;21627;48.216;16.482;2023-09-07T02:39:58;100476.31;;;13.90;100.00
35519;BME280;21627;48.216;16.482;2023-09-07T02:42:25;100472.88;;;13.86;100.00
35519;BME280;21627;48.216;16.482;2023-09-07T02:44:52;100465.06;;;13.80;100.00
35519;BME280;21627;48.216;16.482;2023-09-07T02:47:20;100461.63;;;13.84;100.00
35519;BME280;21627;48.216;16.482;2023-09-07T02:49:48;100465.97;;;13.79;100.00
35519;BME280;21627;48.216;16.482;2023-09-07T02:52:15;100475.47;;;13.83;100.00
35519;BME280;21627;48.216;16.482;2023-09-07T02:54:42;100477.19;;;13.82;100.00
35519;BME280;21627;48.216;16.482;2023-09-07T02:57:09;100478.06;;;13.83;100.00
35519;BME280;21627;48.216;16.482;2023-09-07T02:59:36;100475.47;;;13.80;100.00
35519;BME280;21627;48.216;16.482;2023-09-07T03:02:03;100468.56;;;13.71;100.00
35519;BME280;21627;48.216;16.482;2023-09-07T03:04:30;100472.88;;;13.71;100.00
35519;BME280;21627;48.216;16.482;2023-09-07T03:07:00;100464.25;;;13.69;100.00
35519;BME280;21627;48.216;16.482;2023-09-07T03:09:27;100473.75;;;13.70;100.00
35519;BME280;21627;48.216;16.482;2023-09-07T03:11:54;100470.28;;;13.64;100.00
35519;BME280;21627;48.216;16.482;2023-09-07T03:14:21;100480.69;;;13.66;100.00
35519;BME280;21627;48.216;16.482;2023-09-07T03:16:49;100473.78;;;13.63;100.00
35519;BME280;21627;48.216;16.482;2023-09-07T03:19:17;100473.75;;;13.62;100.00
35519;BME280;21627;48.216;16.482;2023-09-07T03:21:44;100478.13;;;13.58;100.00
35519;BME280;21627;48.216;16.482;2023-09-07T03:24:11;100471.19;;;13.54;100.00
35519;BME280;21627;48.216;16.482;2023-09-07T03:26:38;100479.84;;;13.53;100.00
35519;BME280;21627;48.216;16.482;2023-09-07T03:29:06;100472.06;;;13.49;100.00
35519;BME280;21627;48.216;16.482;2023-09-07T03:31:33;100475.50;;;13.49;100.00
35519;BME280;21627;48.216;16.482;2023-09-07T03:34:00;100465.13;;;13.43;100.00
35519;BME280;21627;48.216;16.482;2023-09-07T03:36:27;100479.81;;;13.42;100.00
35519;BME280;21627;48.216;16.482;2023-09-07T03:38:54;100479.81;;;13.38;100.00
35519;BME280;21627;48.216;16.482;2023-09-07T03:41:21;100488.50;;;13.37;100.00
35519;BME280;21627;48.216;16.482;2023-09-07T03:43:48;100491.09;;;13.34;100.00
35519;BME280;21627;48.216;16.482;2023-09-07T03:46:15;100487.59;;;13.30;100.00
35519;BME280;21627;48.216;16.482;2023-09-07T03:48:43;100481.56;;;13.31;100.00
35519;BME280;21627;48.216;16.482;2023-09-07T03:51:10;100485.00;;;13.26;100.00
35519;BME280;21627;48.216;16.482;2023-09-07T03:53:37;100485.88;;;13.28;100.00
35519;BME280;21627;48.216;16.482;2023-09-07T03:56:04;100487.63;;;13.27;100.00
35519;BME280;21627;48.216;16.482;2023-09-07T03:58:31;100482.38;;;13.23;100.00
35519;BME280;21627;48.216;16.482;2023-09-07T04:00:59;100476.34;;;13.19;100.00
35519;BME280;21627;48.216;16.482;2023-09-07T04:03:27;100478.94;;;13.19;100.00
35519;BME280;21627;48.216;16.482;2023-09-07T04:05:54;100493.63;;;13.20;100.00
35519;BME280;21627;48.216;16.482;2023-09-07T04:08:21;100484.09;;;13.17;100.00
35519;BME280;21627;48.216;16.482;2023-09-07T04:10:48;100493.63;;;13.17;100.00
35519;BME280;21627;48.216;16.482;2023-09-07T04:13:15;100486.72;;;13.13;100.00
35519;BME280;21627;48.216;16.482;2023-09-07T04:15:44;100493.63;;;13.14;100.00
35519;BME280;21627;48.216;16.482;2023-09-07T04:18:12;100492.75;;;13.12;100.00
35519;BME280;21627;48.216;16.482;2023-09-07T04:20:42;100496.22;;;13.12;100.00
35519;BME280;21627;48.216;16.482;2023-09-07T04:23:09;100484.97;;;13.09;100.00
35519;BME280;21627;48.216;16.482;2023-09-07T04:25:36;100492.75;;;13.07;100.00
35519;BME280;21627;48.216;16.482;2023-09-07T04:28:06;100493.59;;;13.05;100.00
35519;BME280;21627;48.216;16.482;2023-09-07T04:30:38;100497.09;;;13.08;100.00
35519;BME280;21627;48.216;16.482;2023-09-07T04:33:05;100508.31;;;13.07;100.00
35519;BME280;21627;48.216;16.482;2023-09-07T04:35:33;100503.16;;;13.06;100.00
35519;BME280;21627;48.216;16.482;2023-09-07T04:38:00;100505.75;;;13.09;100.00
35519;BME280;21627;48.216;16.482;2023-09-07T04:40:27;100497.94;;;13.04;100.00
35519;BME280;21627;48.216;16.482;2023-09-07T04:42:54;100500.53;;;13.03;100.00
35519;BME280;21627;48.216;16.482;2023-09-07T04:45:21;100514.38;;;13.08;100.00
35519;BME280;21627;48.216;16.482;2023-09-07T04:47:49;100520.47;;;13.08;100.00
35519;BME280;21627;48.216;16.482;2023-09-07T04:50:17;100517.84;;;13.10;100.00
35519;BME280;21627;48.216;16.482;2023-09-07T04:52:45;100528.25;;;13.10;100.00
35519;BME280;21627;48.216;16.482;2023-09-07T04:55:12;100520.47;;;13.11;100.00
35519;BME280;21627;48.216;16.482;2023-09-07T04:57:39;100531.72;;;13.12;100.00
35519;BME280;21627;48.216;16.482;2023-09-07T05:00:07;100525.66;;;13.11;100.00
35519;BME280;21627;48.216;16.482;2023-09-07T05:02:36;100530.88;;;13.16;100.00
35519;BME280;21627;48.216;16.482;2023-09-07T05:05:08;100521.31;;;13.12;100.00
35519;BME280;21627;48.216;16.482;2023-09-07T05:07:35;100524.78;;;13.14;100.00
35519;BME280;21627;48.216;16.482;2023-09-07T05:10:02;100536.94;;;13.21;100.00
35519;BME280;21627;48.216;16.482;2023-09-07T05:12:30;100535.19;;;13.25;100.00
35519;BME280;21627;48.216;16.482;2023-09-07T05:14:57;100536.97;;;13.27;100.00
35519;BME280;21627;48.216;16.482;2023-09-07T05:17:24;100542.16;;;13.30;100.00
35519;BME280;21627;48.216;16.482;2023-09-07T05:19:51;100534.38;;;13.32;100.00
35519;BME280;21627;48.216;16.482;2023-09-07T05:22:18;100537.84;;;13.40;100.00
35519;BME280;21627;48.216;16.482;2023-09-07T05:24:46;100534.38;;;13.39;100.00
35519;BME280;21627;48.216;16.482;2023-09-07T05:27:14;100543.91;;;13.53;100.00
35519;BME280;21627;48.216;16.482;2023-09-07T05:29:41;100544.78;;;13.58;100.00
35519;BME280;21627;48.216;16.482;2023-09-07T05:32:10;100532.69;;;13.58;100.00
35519;BME280;21627;48.216;16.482;2023-09-07T05:34:37;100542.19;;;13.64;100.00
35519;BME280;21627;48.216;16.482;2023-09-07T05:37:04;100549.13;;;13.73;100.00
35519;BME280;21627;48.216;16.482;2023-09-07T05:39:31;100537.88;;;13.77;100.00
35519;BME280;21627;48.216;16.482;2023-09-07T05:41:59;100551.69;;;13.96;100.00
35519;BME280;21627;48.216;16.482;2023-09-07T05:44:26;100542.13;;;14.13;100.00
35519;BME280;21627;48.216;16.482;2023-09-07T05:46:53;100531.69;;;14.38;100.00
35519;BME280;21627;48.216;16.482;2023-09-07T05:49:21;100540.38;;;14.35;100.00
35519;BME280;21627;48.216;16.482;2023-09-07T05:51:48;100544.72;;;14.35;100.00
35519;BME280;21627;48.216;16.482;2023-09-07T05:54:16;100542.97;;;14.34;100.00
35519;BME280;21627;48.216;16.482;2023-09-07T05:56:43;100538.63;;;14.37;100.00
35519;BME280;21627;48.216;16.482;2023-09-07T05:59:10;100549.03;;;14.46;100.00
35519;BME280;21627;48.216;16.482;2023-09-07T06:01:39;100546.38;;;14.53;100.00
35519;BME280;21627;48.216;16.482;2023-09-07T06:04:07;100533.41;;;14.54;100.00
35519;BME280;21627;48.216;16.482;2023-09-07T06:06:34;100546.34;;;14.66;100.00
35519;BME280;21627;48.216;16.482;2023-09-07T06:09:01;100543.72;;;14.71;100.00
35519;BME280;21627;48.216;16.482;2023-09-07T06:11:30;100551.53;;;14.82;100.00
35519;BME280;21627;48.216;16.482;2023-09-07T06:13:59;100548.00;;;14.90;100.00
35519;BME280;21627;48.216;16.482;2023-09-07T06:16:26;100548.84;;;14.97;100.00
35519;BME280;21627;48.216;16.482;2023-09-07T06:18:53;100540.94;;;15.06;100.00
35519;BME280;21627;48.216;16.482;2023-09-07T06:21:20;100548.72;;;15.15;100.00
35519;BME280;21627;48.216;16.482;2023-09-07T06:23:47;100542.56;;;15.24;100.00
35519;BME280;21627;48.216;16.482;2023-09-07T06:26:14;100552.06;;;15.34;100.00
35519;BME280;21627;48.216;16.482;2023-09-07T06:28:44;100554.66;;;15.42;100.00
35519;BME280;21627;48.216;16.482;2023-09-07T06:31:11;100555.41;;;15.52;100.00
35519;BME280;21627;48.216;16.482;2023-09-07T06:33:40;100551.88;;;15.59;100.00
35519;BME280;21627;48.216;16.482;2023-09-07T06:36:07;100558.75;;;15.74;100.00
35519;BME280;21627;48.216;16.482;2023-09-07T06:38:34;100563.06;;;15.81;100.00
35519;BME280;21627;48.216;16.482;2023-09-07T06:41:01;100562.09;;;15.91;100.00
35519;BME280;21627;48.216;16.482;2023-09-07T06:43:29;100564.63;;;16.00;100.00
35519;BME280;21627;48.216;16.482;2023-09-07T06:46:06;100563.66;;;16.09;100.00
35519;BME280;21627;48.216;16.482;2023-09-07T06:48:34;100565.34;;;16.15;100.00
35519;BME280;21627;48.216;16.482;2023-09-07T06:51:06;100566.16;;;16.23;100.00
35519;BME280;21627;48.216;16.482;2023-09-07T06:53:33;100562.59;;;16.29;100.00
35519;BME280;21627;48.216;16.482;2023-09-07T06:56:20;100566.84;;;16.37;100.00
35519;BME280;21627;48.216;16.482;2023-09-07T06:58:47;100561.56;;;16.43;100.00
35519;BME280;21627;48.216;16.482;2023-09-07T07:01:15;100570.19;;;16.52;100.00
35519;BME280;21627;48.216;16.482;2023-09-07T07:03:42;100567.44;;;16.64;100.00
35519;BME280;21627;48.216;16.482;2023-09-07T07:06:09;100571.63;;;16.79;100.00
35519;BME280;21627;48.216;16.482;2023-09-07T07:08:36;100565.38;;;16.91;100.00
35519;BME280;21627;48.216;16.482;2023-09-07T07:11:03;100570.44;;;17.03;100.00
35519;BME280;21627;48.216;16.482;2023-09-07T07:13:31;100554.75;;;17.04;100.00
35519;BME280;21627;48.216;16.482;2023-09-07T07:15:58;100578.91;;;17.20;100.00
35519;BME280;21627;48.216;16.482;2023-09-07T07:18:25;100576.13;;;17.31;100.00
35519;BME280;21627;48.216;16.482;2023-09-07T07:20:52;100575.94;;;17.45;100.00
35519;BME280;21627;48.216;16.482;2023-09-07T07:23:19;100575.81;;;17.54;100.00
35519;BME280;21627;48.216;16.482;2023-09-07T07:25:46;100562.69;;;17.57;100.00
35519;BME280;21627;48.216;16.482;2023-09-07T07:28:14;100579.84;;;17.73;100.00
35519;BME280;21627;48.216;16.482;2023-09-07T07:30:41;100583.09;;;17.91;100.00
35519;BME280;21627;48.216;16.482;2023-09-07T07:33:09;100575.03;;;18.03;100.00
35519;BME280;21627;48.216;16.482;2023-09-07T07:35:38;100571.28;;;18.16;100.00
35519;BME280;21627;48.216;16.482;2023-09-07T07:38:06;100576.34;;;18.27;100.00
35519;BME280;21627;48.216;16.482;2023-09-07T07:40:34;100577.94;;;18.36;100.00
35519;BME280;21627;48.216;16.482;2023-09-07T07:43:01;100568.16;;;18.46;100.00
35519;BME280;21627;48.216;16.482;2023-09-07T07:45:30;100572.31;;;18.56;100.00
35519;BME280;21627;48.216;16.482;2023-09-07T07:47:57;100570.44;;;18.63;100.00
35519;BME280;21627;48.216;16.482;2023-09-07T07:50:24;100571.03;;;18.77;100.00
35519;BME280;21627;48.216;16.482;2023-09-07T07:52:51;100568.22;;;18.88;100.00
35519;BME280;21627;48.216;16.482;2023-09-07T07:55:18;100574.91;;;19.02;100.00
35519;BME280;21627;48.216;16.482;2023-09-07T07:57:45;100575.66;;;19.08;100.00
35519;BME280;21627;48.216;16.482;2023-09-07T08:00:14;100578.69;;;19.28;100.00
35519;BME280;21627;48.216;16.482;2023-09-07T08:02:41;100581.88;;;19.41;100.00
35519;BME280;21627;48.216;16.482;2023-09-07T08:05:08;100579.09;;;19.49;100.00
35519;BME280;21627;48.216;16.482;2023-09-07T08:07:35;100577.03;;;19.61;100.00
35519;BME280;21627;48.216;16.482;2023-09-07T08:10:03;100576.78;;;19.72;100.00
35519;BME280;21627;48.216;16.482;2023-09-07T08:12:31;100581.78;;;19.83;100.00
35519;BME280;21627;48.216;16.482;2023-09-07T08:14:58;100576.38;;;19.89;100.00
35519;BME280;21627;48.216;16.482;2023-09-07T08:17:25;100578.63;;;20.04;100.00
35519;BME280;21627;48.216;16.482;2023-09-07T08:19:52;100573.06;;;20.17;100.00
35519;BME280;21627;48.216;16.482;2023-09-07T08:22:23;100578.97;;;20.23;100.00
35519;BME280;21627;48.216;16.482;2023-09-07T08:24:50;100569.09;;;20.33;100.00
35519;BME280;21627;48.216;16.482;2023-09-07T08:27:19;100572.13;;;20.50;100.00
35519;BME280;21627;48.216;16.482;2023-09-07T08:29:47;100576.97;;;20.66;100.00
35519;BME280;21627;48.216;16.482;2023-09-07T08:32:18;100575.88;;;20.74;100.00
35519;BME280;21627;48.216;16.482;2023-09-07T08:34:46;100576.53;;;20.81;100.00
35519;BME280;21627;48.216;16.482;2023-09-07T08:37:13;100583.25;;;20.91;100.00
35519;BME280;21627;48.216;16.482;2023-09-07T08:39:40;100576.00;;;21.00;97.72
35519;BME280;21627;48.216;16.482;2023-09-07T08:42:07;100577.31;;;21.14;97.48
35519;BME280;21627;48.216;16.482;2023-09-07T08:44:37;100573.16;;;21.35;96.81
35519;BME280;21627;48.216;16.482;2023-09-07T08:47:06;100576.44;;;21.44;96.77
35519;BME280;21627;48.216;16.482;2023-09-07T08:49:34;100577.81;;;21.55;95.71
35519;BME280;21627;48.216;16.482;2023-09-07T08:52:02;100570.53;;;21.64;96.44
35519;BME280;21627;48.216;16.482;2023-09-07T08:54:31;100578.78;;;21.79;93.76
35519;BME280;21627;48.216;16.482;2023-09-07T08:57:02;100575.47;;;21.99;88.89
35519;BME280;21627;48.216;16.482;2023-09-07T08:59:31;100573.75;;;21.98;89.69
35519;BME280;21627;48.216;16.482;2023-09-07T09:01:58;100572.41;;;22.12;93.59
35519;BME280;21627;48.216;16.482;2023-09-07T09:04:27;100572.06;;;22.22;89.96
35519;BME280;21627;48.216;16.482;2023-09-07T09:06:56;100565.63;;;22.31;88.82
35519;BME280;21627;48.216;16.482;2023-09-07T09:09:24;100571.44;;;22.41;87.05
35519;BME280;21627;48.216;16.482;2023-09-07T09:11:51;100574.50;;;22.54;87.68
35519;BME280;21627;48.216;16.482;2023-09-07T09:14:19;100570.34;;;22.70;84.25
35519;BME280;21627;48.216;16.482;2023-09-07T09:16:53;100569.56;;;22.92;84.75
35519;BME280;21627;48.216;16.482;2023-09-07T09:19:33;100570.09;;;23.01;84.03
35519;BME280;21627;48.216;16.482;2023-09-07T09:22:01;100573.06;;;23.16;81.31
35519;BME280;21627;48.216;16.482;2023-09-07T09:24:34;100564.75;;;23.26;77.57
35519;BME280;21627;48.216;16.482;2023-09-07T09:27:03;100561.03;;;23.30;76.48
35519;BME280;21627;48.216;16.482;2023-09-07T09:29:35;100564.00;;;23.45;77.53
35519;BME280;21627;48.216;16.482;2023-09-07T09:32:07;100554.78;;;23.55;76.68
35519;BME280;21627;48.216;16.482;2023-09-07T09:34:36;100547.34;;;23.65;77.31
35519;BME280;21627;48.216;16.482;2023-09-07T09:37:04;100556.31;;;23.83;73.77
35519;BME280;21627;48.216;16.482;2023-09-07T09:39:31;100543.38;;;23.97;72.07
35519;BME280;21627;48.216;16.482;2023-09-07T09:41:59;100543.03;;;24.05;72.23
35519;BME280;21627;48.216;16.482;2023-09-07T09:44:29;100550.03;;;24.26;70.23
35519;BME280;21627;48.216;16.482;2023-09-07T09:46:57;100537.59;;;24.28;72.42
35519;BME280;21627;48.216;16.482;2023-09-07T09:49:26;100542.09;;;24.47;69.97
35519;BME280;21627;48.216;16.482;2023-09-07T09:51:55;100546.91;;;24.57;67.00
35519;BME280;21627;48.216;16.482;2023-09-07T09:54:24;100539.84;;;24.58;67.00
35519;BME280;21627;48.216;16.482;2023-09-07T09:56:53;100542.81;;;24.69;66.76
35519;BME280;21627;48.216;16.482;2023-09-07T09:59:21;100541.41;;;24.81;66.12
35519;BME280;21627;48.216;16.482;2023-09-07T10:01:49;100547.00;;;24.94;64.56
35519;BME280;21627;48.216;16.482;2023-09-07T10:04:18;100535.75;;;25.08;65.88
35519;BME280;21627;48.216;16.482;2023-09-07T10:07:05;100534.44;;;25.18;63.17
35519;BME280;21627;48.216;16.482;2023-09-07T10:09:33;100523.63;;;25.22;62.51
35519;BME280;21627;48.216;16.482;2023-09-07T10:12:02;100525.09;;;25.28;59.27
35519;BME280;21627;48.216;16.482;2023-09-07T10:14:42;100532.47;;;25.58;60.37
35519;BME280;21627;48.216;16.482;2023-09-07T10:17:09;100532.84;;;25.67;57.83
35519;BME280;21627;48.216;16.482;2023-09-07T10:19:37;100521.09;;;25.73;56.76
35519;BME280;21627;48.216;16.482;2023-09-07T10:22:06;100511.69;;;25.85;52.03
35519;BME280;21627;48.216;16.482;2023-09-07T10:24:34;100518.00;;;26.00;52.07
35519;BME280;21627;48.216;16.482;2023-09-07T10:27:08;100502.47;;;26.09;52.13
35519;BME280;21627;48.216;16.482;2023-09-07T10:29:47;100520.22;;;26.25;50.50
35519;BME280;21627;48.216;16.482;2023-09-07T10:32:21;100513.66;;;26.32;49.67
35519;BME280;21627;48.216;16.482;2023-09-07T10:34:49;100507.16;;;26.38;49.74
35519;BME280;21627;48.216;16.482;2023-09-07T10:37:17;100515.78;;;26.59;50.16
35519;BME280;21627;48.216;16.482;2023-09-07T10:39:45;100509.72;;;26.72;50.23
35519;BME280;21627;48.216;16.482;2023-09-07T10:42:25;100511.63;;;26.86;48.16
35519;BME280;21627;48.216;16.482;2023-09-07T10:44:53;100513.06;;;26.92;47.09
35519;BME280;21627;48.216;16.482;2023-09-07T10:47:21;100515.03;;;27.04;47.86
35519;BME280;21627;48.216;16.482;2023-09-07T10:49:48;100503.88;;;27.13;47.41
35519;BME280;21627;48.216;16.482;2023-09-07T10:52:16;100502.38;;;27.25;47.76
35519;BME280;21627;48.216;16.482;2023-09-07T10:54:43;100503.28;;;27.40;44.40
35519;BME280;21627;48.216;16.482;2023-09-07T10:57:12;100502.72;;;27.49;43.53
35519;BME280;21627;48.216;16.482;2023-09-07T10:59:47;100506.00;;;27.54;41.96
35519;BME280;21627;48.216;16.482;2023-09-07T11:02:15;100498.75;;;27.56;41.97
35519;BME280;21627;48.216;16.482;2023-09-07T11:04:43;100500.88;;;27.66;42.69
35519;BME280;21627;48.216;16.482;2023-09-07T11:07:11;100499.03;;;27.82;40.96
35519;BME280;21627;48.216;16.482;2023-09-07T11:09:42;100508.38;;;27.89;41.39
35519;BME280;21627;48.216;16.482;2023-09-07T11:12:13;100507.31;;;27.92;41.06
35519;BME280;21627;48.216;16.482;2023-09-07T11:14:43;100508.00;;;27.95;40.96
35519;BME280;21627;48.216;16.482;2023-09-07T11:17:10;100504.31;;;27.98;40.31
35519;BME280;21627;48.216;16.482;2023-09-07T11:19:37;100505.34;;;28.10;41.99
35519;BME280;21627;48.216;16.482;2023-09-07T11:22:04;100501.00;;;28.23;41.73
35519;BME280;21627;48.216;16.482;2023-09-07T11:24:34;100504.06;;;28.45;41.05
35519;BME280;21627;48.216;16.482;2023-09-07T11:27:02;100500.81;;;28.55;41.40
35519;BME280;21627;48.216;16.482;2023-09-07T11:29:32;100492.47;;;28.61;40.73
35519;BME280;21627;48.216;16.482;2023-09-07T11:32:08;100501.56;;;28.71;43.08
35519;BME280;21627;48.216;16.482;2023-09-07T11:34:47;100500.09;;;28.80;40.82
35519;BME280;21627;48.216;16.482;2023-09-07T11:37:22;100494.28;;;28.87;41.40
35519;BME280;21627;48.216;16.482;2023-09-07T11:39:49;100492.09;;;29.08;43.08
35519;BME280;21627;48.216;16.482;2023-09-07T11:42:17;100498.72;;;29.16;41.98
35519;BME280;21627;48.216;16.482;2023-09-07T11:44:44;100495.34;;;29.26;39.14
35519;BME280;21627;48.216;16.482;2023-09-07T11:47:11;100494.38;;;29.27;41.06
35519;BME280;21627;48.216;16.482;2023-09-07T11:49:38;100488.66;;;29.33;40.83
35519;BME280;21627;48.216;16.482;2023-09-07T11:52:05;100487.59;;;29.36;41.16
35519;BME280;21627;48.216;16.482;2023-09-07T11:54:33;100495.81;;;29.46;41.60
35519;BME280;21627;48.216;16.482;2023-09-07T11:57:00;100484.53;;;29.55;41.55
35519;BME280;21627;48.216;16.482;2023-09-07T11:59:27;100475.78;;;29.53;41.05
35519;BME280;21627;48.216;16.482;2023-09-07T12:02:10;100481.53;;;29.74;42.39
35519;BME280;21627;48.216;16.482;2023-09-07T12:04:42;100479.09;;;29.84;40.68
35519;BME280;21627;48.216;16.482;2023-09-07T12:07:10;100486.66;;;29.90;40.23
35519;BME280;21627;48.216;16.482;2023-09-07T12:09:37;100481.00;;;29.94;39.89
35519;BME280;21627;48.216;16.482;2023-09-07T12:12:04;100471.63;;;30.02;38.21
35519;BME280;21627;48.216;16.482;2023-09-07T12:14:31;100470.41;;;30.18;38.94
35519;BME280;21627;48.216;16.482;2023-09-07T12:16:58;100471.16;;;30.33;39.53
35519;BME280;21627;48.216;16.482;2023-09-07T12:19:27;100472.13;;;30.45;38.88
35519;BME280;21627;48.216;16.482;2023-09-07T12:21:54;100467.19;;;30.52;38.91
35519;BME280;21627;48.216;16.482;2023-09-07T12:24:22;100462.56;;;30.54;38.33
35519;BME280;21627;48.216;16.482;2023-09-07T12:26:49;100461.72;;;30.53;38.49
35519;BME280;21627;48.216;16.482;2023-09-07T12:29:16;100459.50;;;30.60;38.57
35519;BME280;21627;48.216;16.482;2023-09-07T12:31:50;100460.56;;;30.81;40.16
35519;BME280;21627;48.216;16.482;2023-09-07T12:34:17;100460.28;;;30.86;39.64
35519;BME280;21627;48.216;16.482;2023-09-07T12:36:44;100468.22;;;30.99;40.43
35519;BME280;21627;48.216;16.482;2023-09-07T12:39:13;100460.34;;;30.97;36.64